createdAt,value
2022-08-28T00:00:41.678Z,4.00
2022-08-28T00:03:10.331Z,4.23
2022-08-28T00:05:39.469Z,4.10
2022-08-28T00:08:07.526Z,4.57
2022-08-28T00:10:34.360Z,4.20
2022-08-28T00:13:01.516Z,3.20
2022-08-28T00:15:32.605Z,4.40
2022-08-28T00:17:59.828Z,4.47
2022-08-28T00:20:28.019Z,4.03
2022-08-28T00:22:55.566Z,4.43
2022-08-28T00:25:24.504Z,4.23
2022-08-28T00:27:57.488Z,4.37
2022-08-28T00:30:33.578Z,4.20
2022-08-28T00:33:07.002Z,4.23
2022-08-28T00:35:34.603Z,4.70
2022-08-28T00:38:01.451Z,4.47
2022-08-28T00:40:33.082Z,5.20
2022-08-28T00:43:03.305Z,4.63
2022-08-28T00:45:33.078Z,4.37
2022-08-28T00:48:02.050Z,4.87
2022-08-28T00:50:53.379Z,7.37
2022-08-28T00:53:29.044Z,6.10
2022-08-28T00:56:01.338Z,4.07
2022-08-28T00:58:29.066Z,4.50
2022-08-28T01:00:55.966Z,4.17
2022-08-28T01:03:25.120Z,4.03
2022-08-28T01:05:53.786Z,3.93
2022-08-28T01:08:20.524Z,4.13
2022-08-28T01:10:55.141Z,4.03
2022-08-28T01:13:24.150Z,4.00
2022-08-28T01:15:51.569Z,4.43
2022-08-28T01:18:20.189Z,4.07
2022-08-28T01:21:05.497Z,3.97
2022-08-28T01:23:58.003Z,3.80
2022-08-28T01:26:26.822Z,3.90
2022-08-28T01:28:54.008Z,4.03
2022-08-28T01:31:21.666Z,3.73
2022-08-28T01:33:48.797Z,4.07
2022-08-28T01:36:17.766Z,3.80
2022-08-28T01:38:50.002Z,3.80
2022-08-28T01:41:16.877Z,4.23
2022-08-28T01:43:44.001Z,4.50
2022-08-28T01:46:12.364Z,4.90
2022-08-28T01:48:42.627Z,4.77
2022-08-28T01:51:11.085Z,4.67
2022-08-28T01:53:39.293Z,4.97
2022-08-28T01:56:14.197Z,4.73
2022-08-28T01:58:41.266Z,4.40
2022-08-28T02:01:13.323Z,5.27
2022-08-28T02:03:43.035Z,5.50
2022-08-28T02:06:10.599Z,5.37
2022-08-28T02:08:37.453Z,4.50
2022-08-28T02:11:06.359Z,5.13
2022-08-28T02:13:35.062Z,4.63
2022-08-28T02:16:02.328Z,5.07
2022-08-28T02:18:29.136Z,4.80
2022-08-28T02:20:56.067Z,4.60
2022-08-28T02:23:22.927Z,5.03
2022-08-28T02:25:49.830Z,4.70
2022-08-28T02:28:17.727Z,4.90
2022-08-28T02:30:44.921Z,4.40
2022-08-28T02:33:11.844Z,4.90
2022-08-28T02:35:40.441Z,4.87
2022-08-28T02:38:07.609Z,4.53
2022-08-28T02:40:34.829Z,4.77
2022-08-28T02:43:01.698Z,4.30
2022-08-28T02:45:28.527Z,4.27
2022-08-28T02:47:56.840Z,4.00
2022-08-28T02:50:24.025Z,4.20
2022-08-28T02:52:51.748Z,3.90
2022-08-28T02:55:19.855Z,4.40
2022-08-28T02:57:48.393Z,4.87
2022-08-28T03:00:19.854Z,4.10
2022-08-28T03:02:47.801Z,4.43
2022-08-28T03:05:18.305Z,3.97
2022-08-28T03:07:45.141Z,3.70
2022-08-28T03:10:11.952Z,3.80
2022-08-28T03:12:39.022Z,3.80
2022-08-28T03:15:07.685Z,4.27
2022-08-28T03:17:36.821Z,4.07
2022-08-28T03:20:09.714Z,4.80
2022-08-28T03:22:55.509Z,5.63
2022-08-28T03:25:22.865Z,4.90
2022-08-28T03:27:50.326Z,5.17
2022-08-28T03:30:18.131Z,4.97
2022-08-28T03:32:44.932Z,5.40
2022-08-28T03:35:12.079Z,4.83
2022-08-28T03:37:38.844Z,5.83
2022-08-28T03:40:07.687Z,5.20
2022-08-28T03:42:34.611Z,5.00
2022-08-28T03:45:01.604Z,5.30
2022-08-28T03:47:28.369Z,4.67
2022-08-28T03:49:57.509Z,5.20
2022-08-28T03:52:24.752Z,5.57
2022-08-28T03:54:52.629Z,4.93
2022-08-28T03:57:21.338Z,5.17
2022-08-28T03:59:50.502Z,5.07
2022-08-28T04:02:19.302Z,5.77
2022-08-28T04:04:50.387Z,5.70
2022-08-28T04:07:18.837Z,5.43
2022-08-28T04:09:46.077Z,5.67
2022-08-28T04:12:14.419Z,5.47
2022-08-28T04:14:41.332Z,5.43
2022-08-28T04:17:08.646Z,5.23
2022-08-28T04:19:35.939Z,4.83
2022-08-28T04:22:02.878Z,4.83
2022-08-28T04:24:29.777Z,4.87
2022-08-28T04:26:56.682Z,5.17
2022-08-28T04:29:23.629Z,4.50
2022-08-28T04:31:50.672Z,4.97
2022-08-28T04:34:17.978Z,4.83
2022-08-28T04:36:45.042Z,5.47
2022-08-28T04:39:11.885Z,5.00
2022-08-28T04:41:39.849Z,4.90
2022-08-28T04:44:07.660Z,4.80
2022-08-28T04:46:34.997Z,4.90
2022-08-28T04:49:04.208Z,4.67
2022-08-28T04:51:31.528Z,5.17
2022-08-28T04:53:58.924Z,4.77
2022-08-28T04:56:26.530Z,4.67
2022-08-28T04:58:53.361Z,5.60
2022-08-28T05:01:24.344Z,5.53
2022-08-28T05:03:55.046Z,5.10
2022-08-28T05:06:22.844Z,4.73
2022-08-28T05:08:49.718Z,4.90
2022-08-28T05:11:34.174Z,5.10
2022-08-28T05:14:09.621Z,5.30
2022-08-28T05:16:47.840Z,5.27
2022-08-28T05:19:16.489Z,5.00
2022-08-28T05:21:44.041Z,5.07
2022-08-28T05:24:11.542Z,5.33
2022-08-28T05:26:39.604Z,6.07
2022-08-28T05:29:08.028Z,5.67
2022-08-28T05:31:35.043Z,5.50
2022-08-28T05:34:02.469Z,5.60
2022-08-28T05:36:33.264Z,5.63
2022-08-28T05:39:01.294Z,5.27
2022-08-28T05:41:30.763Z,5.50
2022-08-28T05:44:03.113Z,5.43
2022-08-28T05:46:30.509Z,5.97
2022-08-28T05:48:57.692Z,5.97
2022-08-28T05:51:26.672Z,6.37
2022-08-28T05:53:55.669Z,6.07
2022-08-28T05:56:36.517Z,5.80
2022-08-28T05:59:05.842Z,6.67
2022-08-28T06:02:04.105Z,5.90
2022-08-28T06:04:31.504Z,6.00
2022-08-28T06:06:58.354Z,6.50
2022-08-28T06:09:29.741Z,6.17
2022-08-28T06:12:02.291Z,6.60
2022-08-28T06:14:29.708Z,6.10
2022-08-28T06:16:56.731Z,6.40
2022-08-28T06:19:25.568Z,6.43
2022-08-28T06:21:57.113Z,6.50
2022-08-28T06:24:25.140Z,6.23
2022-08-28T06:26:52.595Z,6.40
2022-08-28T06:29:22.315Z,6.30
2022-08-28T06:31:57.134Z,6.77
2022-08-28T06:34:24.395Z,7.23
2022-08-28T06:36:53.989Z,6.45
2022-08-28T06:39:22.025Z,6.40
2022-08-28T06:41:49.048Z,6.83
2022-08-28T06:44:19.965Z,6.50
2022-08-28T06:46:50.565Z,7.03
2022-08-28T06:49:17.879Z,6.83
2022-08-28T06:51:44.847Z,7.03
2022-08-28T06:54:11.796Z,6.47
2022-08-28T06:56:38.880Z,6.82
2022-08-28T06:59:05.677Z,6.73
2022-08-28T07:01:35.680Z,6.47
2022-08-28T07:04:05.817Z,6.65
2022-08-28T07:06:38.447Z,7.05
2022-08-28T07:09:08.349Z,7.03
2022-08-28T07:11:36.165Z,7.22
2022-08-28T07:14:04.843Z,7.10
2022-08-28T07:16:38.299Z,6.93
2022-08-28T07:19:07.922Z,7.00
2022-08-28T07:21:42.556Z,7.00
2022-08-28T07:24:12.747Z,7.50
2022-08-28T07:26:41.175Z,7.10
2022-08-28T07:29:11.021Z,7.30
2022-08-28T07:31:41.608Z,7.65
2022-08-28T07:34:10.459Z,8.45
2022-08-28T07:36:37.649Z,8.32
2022-08-28T07:39:05.416Z,8.45
2022-08-28T07:41:35.321Z,8.07
2022-08-28T07:44:20.874Z,8.07
2022-08-28T07:46:47.788Z,7.83
2022-08-28T07:49:17.059Z,7.73
2022-08-28T07:51:46.979Z,9.00
2022-08-28T07:54:18.131Z,9.10
2022-08-28T07:56:46.575Z,8.47
2022-08-28T07:59:17.083Z,9.43
2022-08-28T08:01:46.712Z,8.15
2022-08-28T08:04:16.071Z,9.10
2022-08-28T08:06:43.851Z,8.77
2022-08-28T08:09:14.643Z,9.82
2022-08-28T08:11:42.689Z,10.55
2022-08-28T08:14:10.454Z,11.15
2022-08-28T08:16:40.558Z,11.20
2022-08-28T08:19:13.947Z,11.40
2022-08-28T08:21:43.729Z,12.57
2022-08-28T08:24:12.082Z,10.90
2022-08-28T08:26:59.823Z,11.77
2022-08-28T08:29:35.413Z,11.30
2022-08-28T08:32:06.470Z,12.40
2022-08-28T08:34:36.470Z,12.77
2022-08-28T08:37:03.652Z,12.77
2022-08-28T08:39:31.753Z,13.10
2022-08-28T08:42:00.886Z,15.80
2022-08-28T08:44:34.399Z,14.77
2022-08-28T08:47:22.910Z,13.23
2022-08-28T08:49:57.470Z,14.47
2022-08-28T08:52:36.219Z,13.57
2022-08-28T08:55:06.350Z,14.77
2022-08-28T08:57:35.685Z,13.27
2022-08-28T09:00:14.974Z,13.50
2022-08-28T09:02:54.751Z,13.07
2022-08-28T09:05:26.959Z,13.10
2022-08-28T09:07:57.267Z,13.17
2022-08-28T09:10:38.733Z,14.37
2022-08-28T09:13:21.670Z,13.50
2022-08-28T09:15:50.731Z,12.87
2022-08-28T09:18:33.077Z,13.10
2022-08-28T09:21:00.702Z,12.50
2022-08-28T09:23:29.784Z,12.07
2022-08-28T09:26:01.731Z,11.60
2022-08-28T09:28:36.769Z,10.77
2022-08-28T09:31:05.498Z,11.53
2022-08-28T09:33:44.885Z,10.50
2022-08-28T09:36:30.008Z,9.80
2022-08-28T09:39:18.126Z,10.00
2022-08-28T09:42:30.689Z,9.68
2022-08-28T09:45:13.813Z,9.23
2022-08-28T09:47:58.255Z,7.30
2022-08-28T09:50:25.154Z,7.65
2022-08-28T09:52:54.313Z,8.63
2022-08-28T09:55:53.818Z,7.50
2022-08-28T09:58:22.201Z,8.13
2022-08-28T10:01:01.316Z,7.82
2022-08-28T10:03:44.114Z,8.25
2022-08-28T10:06:31.847Z,7.97
2022-08-28T10:09:11.813Z,9.25
2022-08-28T10:12:05.371Z,8.55
2022-08-28T10:14:48.814Z,7.80
2022-08-28T10:17:39.118Z,7.65
2022-08-28T10:20:22.134Z,7.25
2022-08-28T10:23:07.567Z,6.03
2022-08-28T10:25:34.396Z,9.88
2022-08-28T10:28:23.474Z,4.57
2022-08-28T10:31:09.584Z,4.40
2022-08-28T10:33:50.745Z,3.97
2022-08-28T10:36:34.022Z,2.92
2022-08-28T10:39:18.661Z,2.70
2022-08-28T10:41:50.435Z,2.90
2022-08-28T10:44:26.687Z,3.00
2022-08-28T10:46:57.159Z,3.00
2022-08-28T10:49:30.048Z,4.43
2022-08-28T10:52:22.946Z,4.53
2022-08-28T10:54:53.066Z,5.13
2022-08-28T10:57:41.094Z,4.35
2022-08-28T11:00:12.056Z,4.38
2022-08-28T11:02:45.617Z,4.20
2022-08-28T11:05:13.006Z,5.40
2022-08-28T11:07:51.557Z,4.65
2022-08-28T11:10:34.743Z,5.22
2022-08-28T11:13:02.745Z,4.95
2022-08-28T11:15:36.720Z,5.15
2022-08-28T11:18:15.814Z,5.70
2022-08-28T11:20:56.126Z,5.30
2022-08-28T11:23:36.930Z,5.28
2022-08-28T11:26:09.509Z,6.88
2022-08-28T11:28:36.390Z,4.97
2022-08-28T11:31:06.314Z,5.32
2022-08-28T11:33:49.811Z,5.05
2022-08-28T11:36:19.531Z,4.78
2022-08-28T11:38:46.852Z,5.05
2022-08-28T11:41:24.230Z,5.47
2022-08-28T11:43:52.485Z,5.10
2022-08-28T11:46:31.489Z,4.63
2022-08-28T11:49:03.834Z,5.53
2022-08-28T11:51:58.818Z,5.63
2022-08-28T11:54:35.374Z,5.50
2022-08-28T11:57:18.015Z,4.97
2022-08-28T12:00:34.660Z,4.97
2022-08-28T12:03:12.145Z,5.63
2022-08-28T12:05:45.310Z,4.93
2022-08-28T12:08:34.009Z,5.20
2022-08-28T12:11:01.547Z,5.30
2022-08-28T12:14:00.817Z,4.97
2022-08-28T12:16:27.771Z,5.38
2022-08-28T12:18:54.512Z,5.60
2022-08-28T12:21:24.970Z,5.10
2022-08-28T12:24:09.078Z,7.70
2022-08-28T12:26:42.590Z,5.28
2022-08-28T12:29:38.438Z,6.18
2022-08-28T12:32:42.232Z,7.88
2022-08-28T12:35:24.673Z,4.93
2022-08-28T12:37:54.303Z,5.38
2022-08-28T12:40:33.943Z,4.90
2022-08-28T12:43:15.553Z,4.95
2022-08-28T12:46:05.153Z,4.18
2022-08-28T12:48:46.941Z,9.75
2022-08-28T12:51:18.594Z,5.00
2022-08-28T12:53:48.671Z,4.72
2022-08-28T12:56:18.199Z,4.18
2022-08-28T12:58:46.563Z,4.25
2022-08-28T13:01:33.900Z,4.60
2022-08-28T13:04:17.743Z,4.55
2022-08-28T13:06:45.162Z,5.00
2022-08-28T13:09:18.686Z,5.35
2022-08-28T13:11:51.443Z,5.60
2022-08-28T13:14:43.263Z,5.93
2022-08-28T13:17:11.998Z,5.57
2022-08-28T13:19:39.086Z,5.68
2022-08-28T13:22:33.535Z,6.15
2022-08-28T13:25:02.489Z,5.97
2022-08-28T13:27:29.851Z,5.72
2022-08-28T13:30:08.179Z,5.88
2022-08-28T13:32:38.998Z,5.70
2022-08-28T13:35:16.567Z,5.32
2022-08-28T13:37:43.779Z,5.63
2022-08-28T13:40:30.206Z,5.53
2022-08-28T13:43:03.799Z,5.20
2022-08-28T13:45:42.567Z,5.55
2022-08-28T13:48:11.506Z,5.45
2022-08-28T13:50:41.780Z,5.40
2022-08-28T13:53:09.118Z,5.50
2022-08-28T13:55:35.939Z,5.35
2022-08-28T13:58:03.557Z,5.80
2022-08-28T14:00:37.075Z,5.72
2022-08-28T14:03:22.523Z,5.68
2022-08-28T14:05:49.352Z,6.63
2022-08-28T14:08:16.136Z,6.22
2022-08-28T14:10:43.053Z,6.22
2022-08-28T14:13:09.911Z,6.75
2022-08-28T14:15:36.777Z,8.23
2022-08-28T14:18:03.832Z,6.53
2022-08-28T14:20:31.894Z,7.57
2022-08-28T14:22:58.862Z,6.43
2022-08-28T14:25:26.101Z,7.07
2022-08-28T14:27:53.150Z,6.47
2022-08-28T14:30:20.063Z,6.28
2022-08-28T14:32:46.832Z,5.90
2022-08-28T14:35:13.670Z,5.72
2022-08-28T14:37:41.845Z,6.78
2022-08-28T14:40:09.970Z,5.78
2022-08-28T14:42:36.843Z,5.93
2022-08-28T14:45:04.157Z,6.45
2022-08-28T14:47:30.953Z,7.22
2022-08-28T14:49:57.825Z,6.82
2022-08-28T14:52:24.753Z,7.32
2022-08-28T14:54:51.645Z,12.13
2022-08-28T14:57:18.637Z,7.43
2022-08-28T14:59:45.526Z,7.07
2022-08-28T15:02:13.560Z,7.22
2022-08-28T15:04:40.504Z,7.47
2022-08-28T15:07:10.619Z,7.28
2022-08-28T15:09:40.105Z,7.20
2022-08-28T15:12:07.227Z,6.93
2022-08-28T15:14:35.504Z,7.22
2022-08-28T15:17:02.609Z,7.30
2022-08-28T15:19:30.044Z,6.63
2022-08-28T15:21:57.509Z,6.75
2022-08-28T15:24:31.329Z,7.25
2022-08-28T15:26:59.634Z,6.88
2022-08-28T15:29:29.821Z,6.72
2022-08-28T15:31:57.431Z,7.18
2022-08-28T15:34:26.396Z,8.38
2022-08-28T15:36:55.960Z,7.30
2022-08-28T15:39:46.460Z,7.13
2022-08-28T15:42:14.440Z,7.65
2022-08-28T15:44:41.913Z,8.02
2022-08-28T15:47:09.768Z,8.00
2022-08-28T15:49:43.449Z,7.93
2022-08-28T15:52:18.198Z,8.63
2022-08-28T15:54:45.079Z,8.15
2022-08-28T15:57:11.998Z,8.68
2022-08-28T15:59:49.129Z,8.18
2022-08-28T16:02:18.866Z,7.68
2022-08-28T16:04:45.743Z,8.02
2022-08-28T16:07:12.653Z,9.05
2022-08-28T16:09:39.371Z,7.50
2022-08-28T16:12:06.327Z,7.05
2022-08-28T16:14:34.062Z,5.80
2022-08-28T16:17:05.985Z,5.30
2022-08-28T16:19:39.867Z,5.13
2022-08-28T16:22:07.925Z,5.18
2022-08-28T16:24:34.961Z,5.00
2022-08-28T16:27:01.762Z,5.28
2022-08-28T16:29:28.738Z,5.35
2022-08-28T16:31:56.636Z,5.00
2022-08-28T16:34:25.298Z,4.63
2022-08-28T16:36:55.212Z,4.15
2022-08-28T16:39:22.045Z,4.10
2022-08-28T16:41:50.189Z,7.88
2022-08-28T16:44:22.117Z,4.28
2022-08-28T16:46:50.280Z,5.97
2022-08-28T16:49:17.585Z,4.25
2022-08-28T16:51:44.628Z,3.85
2022-08-28T16:54:11.478Z,4.15
2022-08-28T16:56:39.690Z,3.97
2022-08-28T16:59:10.218Z,4.13
2022-08-28T17:01:39.171Z,3.93
2022-08-28T17:04:08.038Z,3.80
2022-08-28T17:06:34.904Z,4.50
2022-08-28T17:09:01.754Z,3.93
2022-08-28T17:11:28.953Z,4.67
2022-08-28T17:13:56.724Z,4.40
2022-08-28T17:16:25.927Z,4.30
2022-08-28T17:18:53.297Z,4.20
2022-08-28T17:21:40.048Z,4.80
2022-08-28T17:24:08.114Z,3.60
2022-08-28T17:26:34.923Z,5.17
2022-08-28T17:29:02.281Z,6.33
2022-08-28T17:31:29.190Z,4.90
2022-08-28T17:33:56.044Z,3.90
2022-08-28T17:36:32.481Z,3.40
2022-08-28T17:39:02.491Z,3.60
2022-08-28T17:41:29.284Z,3.73
2022-08-28T17:43:56.206Z,3.90
2022-08-28T17:46:23.045Z,3.50
2022-08-28T17:48:55.455Z,3.87
2022-08-28T17:51:40.398Z,7.03
2022-08-28T17:54:18.105Z,5.83
2022-08-28T17:56:45.077Z,4.67
2022-08-28T17:59:12.531Z,3.60
2022-08-28T18:01:41.552Z,3.53
2022-08-28T18:04:09.033Z,3.90
2022-08-28T18:06:36.112Z,3.77
2022-08-28T18:09:04.561Z,3.70
2022-08-28T18:11:31.523Z,3.70
2022-08-28T18:13:59.733Z,6.50
2022-08-28T18:16:31.110Z,6.77
2022-08-28T18:18:59.836Z,4.87
2022-08-28T18:21:27.111Z,5.00
2022-08-28T18:23:54.005Z,5.50
2022-08-28T18:26:20.839Z,5.17
2022-08-28T18:28:47.923Z,5.17
2022-08-28T18:31:14.942Z,5.23
2022-08-28T18:33:41.946Z,4.40
2022-08-28T18:36:10.965Z,4.00
2022-08-28T18:38:39.073Z,4.47
2022-08-28T18:41:06.940Z,3.60
2022-08-28T18:43:34.197Z,3.33
2022-08-28T18:46:02.953Z,3.77
2022-08-28T18:48:31.234Z,4.40
2022-08-28T18:50:58.090Z,4.23
2022-08-28T18:53:24.998Z,4.77
2022-08-28T18:55:53.911Z,4.30
2022-08-28T18:58:22.118Z,8.97
2022-08-28T19:00:49.515Z,4.90
2022-08-28T19:03:16.453Z,11.60
2022-08-28T19:05:43.279Z,4.30
2022-08-28T19:08:10.336Z,4.37
2022-08-28T19:10:37.890Z,4.20
2022-08-28T19:13:05.580Z,3.77
2022-08-28T19:15:34.284Z,3.97
2022-08-28T19:18:02.060Z,10.40
2022-08-28T19:20:30.130Z,4.00
2022-08-28T19:22:57.975Z,5.13
2022-08-28T19:25:28.259Z,5.27
2022-08-28T19:27:59.376Z,4.37
2022-08-28T19:30:28.421Z,6.47
2022-08-28T19:32:55.215Z,8.47
2022-08-28T19:35:24.232Z,4.37
2022-08-28T19:37:52.466Z,4.33
2022-08-28T19:40:20.737Z,3.97
2022-08-28T19:42:49.738Z,3.97
2022-08-28T19:45:17.711Z,4.43
2022-08-28T19:47:44.908Z,4.57
2022-08-28T19:50:13.870Z,4.67
2022-08-28T19:52:43.034Z,4.83
2022-08-28T19:55:20.435Z,4.67
2022-08-28T19:57:48.464Z,3.80
2022-08-28T20:00:24.630Z,4.00
2022-08-28T20:02:52.409Z,4.07
2022-08-28T20:05:20.423Z,4.10
2022-08-28T20:07:47.744Z,8.27
2022-08-28T20:10:16.111Z,6.30
2022-08-28T20:12:48.509Z,4.43
2022-08-28T20:15:17.074Z,8.70
2022-08-28T20:17:49.618Z,4.33
2022-08-28T20:20:21.461Z,4.23
2022-08-28T20:22:48.856Z,4.60
2022-08-28T20:25:21.001Z,5.70
2022-08-28T20:27:47.818Z,4.57
2022-08-28T20:30:14.706Z,4.70
2022-08-28T20:32:41.551Z,4.03
2022-08-28T20:35:10.850Z,4.87
2022-08-28T20:37:44.851Z,4.63
2022-08-28T20:40:14.914Z,4.70
2022-08-28T20:42:41.702Z,5.07
2022-08-28T20:45:09.150Z,4.77
2022-08-28T20:47:36.381Z,8.27
2022-08-28T20:50:04.127Z,4.77
2022-08-28T20:52:30.951Z,4.40
2022-08-28T20:54:58.143Z,4.47
2022-08-28T20:57:25.301Z,5.10
2022-08-28T20:59:54.061Z,4.77
2022-08-28T21:02:26.914Z,17.03
2022-08-28T21:04:54.964Z,13.10
2022-08-28T21:07:24.032Z,5.27
2022-08-28T21:10:05.551Z,4.90
2022-08-28T21:12:39.433Z,5.07
2022-08-28T21:15:08.468Z,5.43
2022-08-28T21:17:35.444Z,5.40
2022-08-28T21:20:06.744Z,5.13
2022-08-28T21:22:34.539Z,5.30
2022-08-28T21:25:04.964Z,8.53
2022-08-28T21:27:32.051Z,10.33
2022-08-28T21:30:00.605Z,6.17
2022-08-28T21:32:28.809Z,5.80
2022-08-28T21:34:55.742Z,5.53
2022-08-28T21:37:23.528Z,8.60
2022-08-28T21:39:50.727Z,5.63
2022-08-28T21:42:17.866Z,5.80
2022-08-28T21:44:51.505Z,6.10
2022-08-28T21:47:21.467Z,6.17
2022-08-28T21:49:50.106Z,5.60
2022-08-28T21:52:19.021Z,7.80
2022-08-28T21:54:46.026Z,8.00
2022-08-28T21:57:12.877Z,7.30
2022-08-28T21:59:39.995Z,5.47
2022-08-28T22:02:07.301Z,5.83
2022-08-28T22:04:34.769Z,6.00
2022-08-28T22:07:01.833Z,5.23
2022-08-28T22:09:29.029Z,6.07
2022-08-28T22:11:55.878Z,5.63
2022-08-28T22:14:25.225Z,5.83
2022-08-28T22:16:52.383Z,5.50
2022-08-28T22:19:19.644Z,5.67
2022-08-28T22:22:04.966Z,6.00
2022-08-28T22:24:31.774Z,5.73
2022-08-28T22:26:58.649Z,5.50
2022-08-28T22:29:25.817Z,11.63
2022-08-28T22:31:53.245Z,6.43
2022-08-28T22:34:20.189Z,6.93
2022-08-28T22:36:47.101Z,7.37
2022-08-28T22:39:14.024Z,6.77
2022-08-28T22:41:41.588Z,6.30
2022-08-28T22:44:08.659Z,10.67
2022-08-28T22:46:35.899Z,10.13
2022-08-28T22:49:02.970Z,5.87
2022-08-28T22:51:29.976Z,6.50
2022-08-28T22:53:56.868Z,5.87
2022-08-28T22:56:23.851Z,5.53
2022-08-28T22:58:51.039Z,5.93
2022-08-28T23:01:20.786Z,6.07
2022-08-28T23:03:48.648Z,5.73
2022-08-28T23:06:15.585Z,5.37
2022-08-28T23:08:43.129Z,5.97
2022-08-28T23:11:10.555Z,6.17
2022-08-28T23:13:37.936Z,5.90
2022-08-28T23:16:05.168Z,6.13
2022-08-28T23:18:46.304Z,5.83
2022-08-28T23:21:20.834Z,5.70
2022-08-28T23:23:48.305Z,5.97
2022-08-28T23:26:16.943Z,6.57
2022-08-28T23:28:43.885Z,6.90
2022-08-28T23:31:10.733Z,6.37
2022-08-28T23:33:37.550Z,6.83
2022-08-28T23:36:05.126Z,7.00
2022-08-28T23:38:31.944Z,7.30
2022-08-28T23:40:58.884Z,6.93
2022-08-28T23:43:25.717Z,6.70
2022-08-28T23:45:52.808Z,6.93
2022-08-28T23:48:20.924Z,6.67
2022-08-28T23:50:48.322Z,6.77
2022-08-28T23:53:16.588Z,6.47
2022-08-28T23:55:44.295Z,6.60
2022-08-28T23:58:11.214Z,6.33
